createdAt,value
2018-10-03T00:02:03.010Z,39.05
2018-10-03T00:04:55.631Z,39.85
2018-10-03T00:07:47.201Z,41.25
2018-10-03T00:10:38.719Z,39.27
2018-10-03T00:13:30.186Z,38.50
2018-10-03T00:16:21.257Z,37.55
2018-10-03T00:19:12.237Z,39.03
2018-10-03T00:22:04.066Z,36.75
2018-10-03T00:24:55.912Z,35.40
2018-10-03T00:27:47.854Z,40.92
2018-10-03T00:30:39.838Z,38.90
2018-10-03T00:33:33.912Z,37.23
2018-10-03T00:36:24.868Z,37.10
2018-10-03T00:39:17.356Z,37.70
2018-10-03T00:42:08.221Z,39.92
2018-10-03T00:44:59.165Z,38.88
2018-10-03T00:47:50.692Z,33.73
2018-10-03T00:50:42.730Z,41.48
2018-10-03T00:53:33.487Z,36.90
2018-10-03T00:56:24.035Z,40.75
2018-10-03T00:59:15.958Z,36.60
2018-10-03T01:02:07.248Z,37.25
2018-10-03T01:04:58.997Z,40.52
2018-10-03T01:07:50.183Z,36.58
2018-10-03T01:10:44.066Z,37.10
2018-10-03T01:13:36.913Z,38.23
2018-10-03T01:16:27.819Z,37.65
2018-10-03T01:19:19.366Z,38.45
2018-10-03T01:22:10.808Z,35.73
2018-10-03T01:25:02.178Z,40.75
2018-10-03T01:27:52.955Z,35.08
2018-10-03T01:30:46.414Z,38.98
2018-10-03T01:33:38.025Z,39.90
2018-10-03T01:36:28.951Z,36.03
2018-10-03T01:39:20.528Z,38.78
2018-10-03T01:42:12.311Z,42.17
2018-10-03T01:45:03.913Z,40.38
2018-10-03T01:47:56.889Z,42.08
2018-10-03T01:50:48.527Z,42.53
2018-10-03T01:53:40.244Z,44.23
2018-10-03T01:56:31.579Z,48.23
2018-10-03T01:59:22.392Z,48.63
2018-10-03T02:02:13.226Z,42.35
2018-10-03T02:05:04.657Z,42.03
2018-10-03T02:07:56.547Z,42.95
2018-10-03T02:10:49.360Z,40.43
2018-10-03T02:13:40.396Z,38.58
2018-10-03T02:16:31.795Z,42.80
2018-10-03T02:19:23.370Z,40.60
2018-10-03T02:22:14.606Z,40.92
2018-10-03T02:25:05.510Z,40.52
2018-10-03T02:27:56.509Z,41.45
2018-10-03T02:30:48.481Z,41.23
2018-10-03T02:33:40.037Z,42.93
2018-10-03T02:36:30.825Z,42.98
2018-10-03T02:39:22.078Z,42.60
2018-10-03T02:42:23.614Z,42.53
2018-10-03T02:45:24.403Z,46.40
2018-10-03T02:48:31.641Z,42.98
2018-10-03T02:51:29.224Z,44.98
2018-10-03T02:54:20.743Z,44.40
2018-10-03T02:57:11.881Z,39.50
2018-10-03T03:00:02.960Z,47.40
2018-10-03T03:02:54.017Z,48.05
2018-10-03T03:05:45.579Z,46.95
2018-10-03T03:08:37.377Z,45.98
2018-10-03T03:11:28.818Z,50.73
2018-10-03T03:14:19.805Z,48.75
2018-10-03T03:17:11.082Z,46.48
2018-10-03T03:20:02.846Z,52.43
2018-10-03T03:22:53.415Z,47.40
2018-10-03T03:25:44.617Z,54.25
2018-10-03T03:28:35.435Z,46.23
2018-10-03T03:31:26.957Z,51.75
2018-10-03T03:34:18.385Z,50.55
2018-10-03T03:37:10.913Z,50.70
2018-10-03T03:40:02.486Z,60.15
2018-10-03T03:42:53.864Z,50.78
2018-10-03T03:45:45.417Z,48.95
2018-10-03T03:48:36.486Z,46.65
2018-10-03T03:51:29.468Z,44.45
2018-10-03T03:54:21.297Z,44.50
2018-10-03T03:57:13.032Z,41.80
2018-10-03T04:00:03.713Z,50.63
2018-10-03T04:02:54.845Z,45.17
2018-10-03T04:05:46.044Z,43.17
2018-10-03T04:08:37.868Z,44.15
2018-10-03T04:11:28.611Z,42.55
2018-10-03T04:14:19.703Z,42.20
2018-10-03T04:17:11.756Z,44.27
2018-10-03T04:20:03.417Z,38.70
2018-10-03T04:22:56.026Z,40.73
2018-10-03T04:25:48.518Z,40.70
2018-10-03T04:28:40.383Z,38.90
2018-10-03T04:31:32.051Z,36.95
2018-10-03T04:34:23.678Z,44.55
2018-10-03T04:37:16.056Z,124.02
2018-10-03T04:40:07.972Z,198.62
2018-10-03T04:42:59.282Z,167.82
2018-10-03T04:45:50.211Z,150.47
2018-10-03T04:48:41.679Z,140.62
2018-10-03T04:51:36.577Z,112.85
2018-10-03T04:54:27.554Z,98.58
2018-10-03T04:57:19.094Z,82.17
2018-10-03T05:00:12.058Z,75.40
2018-10-03T05:03:03.159Z,79.00
2018-10-03T05:05:58.390Z,69.97
2018-10-03T05:08:53.236Z,64.62
2018-10-03T05:11:45.890Z,78.00
2018-10-03T05:14:38.382Z,71.90
2018-10-03T05:17:31.714Z,60.03
2018-10-03T05:20:23.780Z,60.73
2018-10-03T05:23:23.654Z,74.80
2018-10-03T05:26:23.189Z,75.57
2018-10-03T05:29:19.550Z,67.62
2018-10-03T05:32:20.668Z,86.00
2018-10-03T05:35:15.466Z,76.60
2018-10-03T05:38:11.509Z,64.60
2018-10-03T05:41:08.769Z,62.35
2018-10-03T05:44:05.921Z,67.65
2018-10-03T05:47:02.593Z,57.65
2018-10-03T05:50:01.580Z,66.55
2018-10-03T05:56:38.032Z,65.47
2018-10-03T05:59:36.241Z,65.35
2018-10-03T06:02:34.182Z,62.88
2018-10-03T06:05:37.821Z,76.07
2018-10-03T06:08:37.283Z,73.85
2018-10-03T06:11:32.306Z,57.38
2018-10-03T06:14:25.341Z,60.48
2018-10-03T06:17:20.441Z,66.82
2018-10-03T06:20:15.852Z,64.47
2018-10-03T06:23:26.950Z,63.80
2018-10-03T06:26:34.967Z,68.33
2018-10-03T06:30:13.578Z,68.78
2018-10-03T06:33:37.267Z,65.75
2018-10-03T06:36:32.417Z,65.15
2018-10-03T06:42:40.246Z,64.27
2018-10-03T06:45:50.710Z,72.85
2018-10-03T06:49:03.665Z,74.20
2018-10-03T06:52:08.339Z,67.53
2018-10-03T06:55:19.754Z,66.65
2018-10-03T06:58:12.779Z,68.30
2018-10-03T07:01:07.066Z,67.45
2018-10-03T09:59:58.290Z,56.83
2018-10-03T10:02:58.519Z,80.60
2018-10-03T10:05:51.155Z,79.42
2018-10-03T10:08:44.225Z,76.87
2018-10-03T10:11:38.304Z,66.72
2018-10-03T10:14:29.939Z,65.40
2018-10-03T10:17:23.508Z,64.80
2018-10-03T10:20:18.301Z,61.70
2018-10-03T10:23:13.550Z,62.50
2018-10-03T10:26:06.595Z,69.65
2018-10-03T10:29:01.860Z,66.92
2018-10-03T10:32:02.013Z,75.25
2018-10-03T10:35:01.020Z,73.45
2018-10-03T10:39:24.672Z,69.75
2018-10-03T10:42:22.239Z,72.17
2018-10-03T10:45:16.551Z,59.05
2018-10-03T10:48:12.804Z,63.65
2018-10-03T10:51:07.861Z,64.12
2018-10-03T10:54:05.865Z,65.55
2018-10-03T10:57:05.288Z,72.67
2018-10-03T11:00:27.291Z,69.70
2018-10-03T11:06:59.502Z,61.65
2018-10-03T11:34:07.506Z,64.67
2018-10-03T11:37:09.177Z,64.27
2018-10-03T11:43:40.070Z,67.32
2018-10-03T11:46:50.620Z,84.25
2018-10-03T11:50:27.423Z,66.82
2018-10-03T11:53:31.197Z,78.45
2018-10-03T11:56:43.321Z,83.67
2018-10-03T11:59:43.635Z,70.52
2018-10-03T12:02:40.780Z,77.12
2018-10-03T12:05:41.792Z,74.12
2018-10-03T12:17:11.513Z,71.75
2018-10-03T12:24:19.003Z,69.50
2018-10-03T12:27:14.079Z,71.07
2018-10-03T12:30:20.302Z,78.72
2018-10-03T12:33:14.399Z,88.80
2018-10-03T12:36:07.834Z,86.08
2018-10-03T12:39:02.090Z,75.50
2018-10-03T12:41:57.533Z,83.95
2018-10-03T12:44:58.394Z,84.77
2018-10-03T12:47:53.337Z,83.50
2018-10-03T12:50:47.129Z,91.30
2018-10-03T12:53:40.837Z,93.07
2018-10-03T12:56:33.550Z,87.53
2018-10-03T12:59:26.538Z,91.80
2018-10-03T13:02:20.483Z,86.50
2018-10-03T13:05:13.311Z,92.57
2018-10-03T13:08:07.193Z,89.20
2018-10-03T13:10:59.495Z,106.25
2018-10-03T13:13:56.209Z,114.08
2018-10-03T13:16:47.621Z,108.60
2018-10-03T13:19:39.590Z,98.78
2018-10-03T13:22:30.641Z,107.55
2018-10-03T13:25:25.528Z,100.47
2018-10-03T13:28:19.573Z,100.87
2018-10-03T13:31:12.406Z,120.05
2018-10-03T13:34:03.675Z,104.72
2018-10-03T13:36:58.521Z,96.92
2018-10-03T13:39:51.749Z,92.37
2018-10-03T13:42:44.674Z,97.85
2018-10-03T13:45:37.582Z,129.93
2018-10-03T13:48:30.159Z,119.80
2018-10-03T13:51:22.368Z,117.25
2018-10-03T13:54:14.632Z,102.07
2018-10-03T13:57:06.398Z,113.60
2018-10-03T13:59:58.257Z,110.52
2018-10-03T14:02:49.973Z,121.50
2018-10-03T14:05:42.605Z,101.90
2018-10-03T14:08:34.589Z,122.07
2018-10-03T14:11:29.652Z,111.47
2018-10-03T14:14:21.875Z,92.53
2018-10-03T14:17:14.944Z,100.70
2018-10-03T14:20:06.487Z,101.53
2018-10-03T14:22:59.141Z,97.60
2018-10-03T14:25:50.729Z,91.75
2018-10-03T14:28:43.380Z,98.52
2018-10-03T14:31:34.745Z,109.83
2018-10-03T14:34:27.132Z,113.22
2018-10-03T14:37:21.310Z,97.97
2018-10-03T14:40:12.956Z,103.55
2018-10-03T14:43:05.050Z,110.75
2018-10-03T14:46:00.849Z,108.67
2018-10-03T14:48:52.722Z,128.53
2018-10-03T14:51:45.579Z,107.05
2018-10-03T14:54:37.560Z,105.00
2018-10-03T14:57:28.706Z,114.08
2018-10-03T15:00:21.152Z,107.22
2018-10-03T15:03:15.044Z,100.60
2018-10-03T15:06:06.532Z,102.75
2018-10-03T15:08:58.124Z,139.65
2018-10-03T15:11:49.287Z,127.38
2018-10-03T15:14:41.375Z,123.55
2018-10-03T15:17:31.960Z,131.55
2018-10-03T15:20:23.266Z,120.67
2018-10-03T15:23:15.098Z,136.82
2018-10-03T15:26:06.926Z,139.37
2018-10-03T15:28:58.487Z,138.95
2018-10-03T15:31:51.847Z,136.22
2018-10-03T15:34:43.759Z,109.42
2018-10-03T15:37:38.884Z,107.80
2018-10-03T15:40:29.843Z,112.62
2018-10-03T15:43:21.525Z,113.85
2018-10-03T15:46:12.632Z,129.32
2018-10-03T15:49:05.178Z,123.07
2018-10-03T15:51:56.528Z,136.75
2018-10-03T15:54:47.677Z,133.32
2018-10-03T15:57:38.861Z,126.95
2018-10-03T16:00:30.247Z,169.32
2018-10-03T16:03:21.745Z,163.00
2018-10-03T16:06:13.717Z,132.95
2018-10-03T16:09:05.609Z,131.12
2018-10-03T16:11:57.221Z,153.47
2018-10-03T16:14:48.056Z,125.97
2018-10-03T16:17:39.985Z,121.77
2018-10-03T16:20:31.768Z,161.52
2018-10-03T16:23:24.069Z,151.22
2018-10-03T16:26:18.761Z,144.07
2018-10-03T16:29:10.981Z,134.95
2018-10-03T16:32:02.223Z,143.72
2018-10-03T16:34:53.987Z,146.95
2018-10-03T16:37:46.597Z,139.75
2018-10-03T16:40:37.919Z,134.65
2018-10-03T16:43:28.945Z,143.93
2018-10-03T16:46:19.984Z,124.33
2018-10-03T16:49:13.479Z,135.95
2018-10-03T16:52:08.814Z,143.17
2018-10-03T16:55:03.782Z,132.25
2018-10-03T16:57:55.886Z,126.75
2018-10-03T17:00:50.460Z,129.03
2018-10-03T17:03:41.533Z,112.92
2018-10-03T17:06:32.317Z,102.45
2018-10-03T17:09:23.762Z,114.60
2018-10-03T17:12:14.390Z,131.27
2018-10-03T17:15:06.367Z,116.75
2018-10-03T17:17:57.285Z,125.95
2018-10-03T17:20:49.732Z,105.05
2018-10-03T17:23:43.213Z,112.95
2018-10-03T17:26:36.551Z,109.03
2018-10-03T17:29:27.979Z,121.33
2018-10-03T17:32:19.376Z,115.97
2018-10-03T17:35:13.404Z,124.22
2018-10-03T17:38:06.194Z,113.12
2018-10-03T17:40:57.625Z,113.17
2018-10-03T17:43:48.839Z,90.38
2018-10-03T17:46:40.347Z,117.10
2018-10-03T17:49:33.989Z,108.17
2018-10-03T17:52:25.466Z,128.23
2018-10-03T17:55:18.239Z,109.48
2018-10-03T17:58:10.972Z,120.30
2018-10-03T18:01:02.440Z,100.10
2018-10-03T18:03:53.978Z,124.70
2018-10-03T18:06:45.796Z,115.25
2018-10-03T18:12:34.758Z,148.57
2018-10-03T18:15:28.580Z,193.85
2018-10-03T18:18:19.819Z,193.35
2018-10-03T18:21:12.527Z,185.07
2018-10-03T18:24:04.812Z,170.43
2018-10-03T18:26:55.659Z,150.60
2018-10-03T18:29:47.056Z,140.97
2018-10-03T18:32:38.875Z,146.00
2018-10-03T18:35:30.143Z,131.50
2018-10-03T18:38:25.110Z,152.12
2018-10-03T18:41:16.464Z,125.55
2018-10-03T18:44:08.311Z,189.85
2018-10-03T18:47:00.132Z,153.30
2018-10-03T18:49:51.455Z,142.75
2018-10-03T18:52:43.760Z,145.92
2018-10-03T18:55:35.005Z,148.13
2018-10-03T18:58:28.911Z,153.82
2018-10-03T19:01:20.356Z,154.87
2018-10-03T19:04:11.485Z,163.10
2018-10-03T19:07:02.079Z,178.80
2018-10-03T19:09:53.124Z,169.20
2018-10-03T19:12:44.262Z,112.28
2018-10-03T19:15:35.198Z,109.65
2018-10-03T19:18:27.651Z,105.87
2018-10-03T19:21:19.851Z,117.70
2018-10-03T19:24:11.091Z,112.72
2018-10-03T19:27:02.239Z,116.88
2018-10-03T19:29:53.303Z,109.20
2018-10-03T19:32:44.475Z,107.80
2018-10-03T19:35:38.166Z,113.70
2018-10-03T19:38:30.649Z,113.15
2018-10-03T19:41:23.114Z,95.07
2018-10-03T19:44:15.002Z,110.68
2018-10-03T19:47:06.051Z,123.55
2018-10-03T19:49:57.204Z,121.62
2018-10-03T19:52:50.399Z,114.80
2018-10-03T19:55:44.914Z,110.78
2018-10-03T19:58:36.760Z,108.25
2018-10-03T20:01:28.352Z,102.22
2018-10-03T20:04:19.665Z,106.30
2018-10-03T20:07:11.531Z,116.60
2018-10-03T20:10:02.651Z,109.60
2018-10-03T20:12:54.313Z,104.92
2018-10-03T20:15:45.894Z,106.15
2018-10-03T20:18:37.093Z,117.42
2018-10-03T20:21:28.735Z,111.68
2018-10-03T20:24:20.488Z,108.57
2018-10-03T20:27:12.578Z,110.80
2018-10-03T20:30:04.375Z,111.45
2018-10-03T20:32:55.431Z,111.20
2018-10-03T20:35:46.685Z,108.90
2018-10-03T20:38:39.298Z,108.78
2018-10-03T20:41:30.468Z,115.42
2018-10-03T20:44:21.004Z,109.70
2018-10-03T20:47:12.680Z,119.35
2018-10-03T20:50:03.438Z,96.47
2018-10-03T20:52:54.674Z,105.80
2018-10-03T20:55:45.990Z,106.83
2018-10-03T20:58:39.000Z,94.83
2018-10-03T21:01:30.267Z,98.30
2018-10-03T21:04:22.213Z,101.30
2018-10-03T21:07:14.393Z,118.35
2018-10-03T21:10:05.835Z,167.85
2018-10-03T21:12:58.440Z,138.20
2018-10-03T21:15:50.158Z,171.87
2018-10-03T21:18:41.044Z,214.05
2018-10-03T21:21:32.239Z,258.07
2018-10-03T21:24:23.742Z,228.50
2018-10-03T21:27:15.964Z,124.82
2018-10-03T21:30:07.429Z,102.85
2018-10-03T21:32:58.335Z,124.80
2018-10-03T21:35:49.193Z,141.12
2018-10-03T21:38:41.458Z,137.25
2018-10-03T21:41:32.929Z,156.65
2018-10-03T21:44:24.236Z,211.47
2018-10-03T21:47:16.150Z,189.70
2018-10-03T21:50:07.916Z,211.47
2018-10-03T21:52:58.729Z,171.57
2018-10-03T21:55:49.333Z,152.95
2018-10-03T21:58:40.760Z,96.78
2018-10-03T22:01:33.247Z,111.85
2018-10-03T22:04:24.117Z,120.70
2018-10-03T22:07:15.412Z,96.20
2018-10-03T22:10:07.008Z,116.30
2018-10-03T22:12:58.242Z,96.28
2018-10-03T22:15:49.156Z,98.67
2018-10-03T22:18:40.624Z,97.92
2018-10-03T22:21:32.339Z,103.32
2018-10-03T22:24:23.437Z,94.65
2018-10-03T22:27:16.205Z,103.45
2018-10-03T22:30:08.214Z,100.33
2018-10-03T22:32:59.620Z,91.75
2018-10-03T22:35:50.594Z,101.25
2018-10-03T22:38:44.345Z,90.15
2018-10-03T22:41:37.767Z,114.22
2018-10-03T22:44:29.312Z,112.00
2018-10-03T22:47:20.794Z,109.67
2018-10-03T22:50:12.160Z,107.70
2018-10-03T22:53:03.730Z,110.65
2018-10-03T22:55:55.191Z,120.90
2018-10-03T22:58:46.568Z,121.62
2018-10-03T23:04:33.200Z,161.97
2018-10-03T23:07:25.250Z,188.40
2018-10-03T23:10:16.825Z,196.93
2018-10-03T23:13:08.001Z,170.32
2018-10-03T23:16:03.375Z,182.15
2018-10-03T23:18:54.950Z,129.27
2018-10-03T23:21:47.333Z,118.35
2018-10-03T23:24:39.120Z,126.58
2018-10-03T23:27:30.318Z,118.95
2018-10-03T23:30:22.657Z,109.22
2018-10-03T23:33:14.098Z,130.63
2018-10-03T23:36:05.902Z,133.75
2018-10-03T23:38:58.759Z,116.35
2018-10-03T23:41:50.168Z,121.00
2018-10-03T23:44:42.555Z,127.32
2018-10-03T23:47:34.176Z,150.85
2018-10-03T23:50:26.833Z,132.85
2018-10-03T23:53:18.309Z,145.72
2018-10-03T23:56:10.686Z,140.10
2018-10-03T23:59:01.877Z,133.32
